Time;durP1;ratioP1;P1;durP2;ratioP2;P2;SDS_P1;SDS_P2;PMS_P1;PMS_P2;Temp;Humidity;BMP_temperature;BMP_pressure;BME280_temperature;BME280_humidity;BME280_pressure;Samples;Min_cycle;Max_cycle;Signal;HPM_P1;HPM_P2
2022/03/01 00:01:15;;;;;;;;;;;;;;;3.57;59.38;101291.66;4483485;32;20012;-87
2022/03/01 00:03:41;;;;;;;;;;;;;;;3.67;59.38;101281.56;4483231;32;26878;-86
2022/03/01 00:06:06;;;;;;;;;;;;;;;3.60;59.38;101278.84;4485073;31;20042;-86
2022/03/01 00:08:31;;;;;;;;;;;;;;;3.61;59.38;101285.72;4483700;32;19996;-87
2022/03/01 00:10:56;;;;;;;;;;;;;;;3.49;59.37;101276.03;4470192;32;19988;-87
2022/03/01 00:13:22;;;;;;;;;;;;;;;3.67;59.38;101275.53;4483020;31;26606;-87
2022/03/01 00:15:47;;;;;;;;;;;;;;;3.53;59.38;101276.94;4483785;32;19995;-87
2022/03/01 00:18:12;;;;;;;;;;;;;;;3.53;59.38;101270.09;4484102;32;19980;-86
2022/03/01 00:20:38;;;;;;;;;;;;;;;3.50;59.37;101277.75;4483683;32;20066;-85
2022/03/01 00:23:03;;;;;;;;;;;;;;;3.57;59.38;101276.22;4484859;32;19973;-86
2022/03/01 00:25:28;;;;;;;;;;;;;;;3.44;59.37;101277.63;4483591;32;20301;-86
2022/03/01 00:27:53;;;;;;;;;;;;;;;3.35;59.36;101275.75;4483706;32;20440;-87
2022/03/01 00:30:19;;;;;;;;;;;;;;;3.35;59.36;101268.03;4482918;32;25347;-86
2022/03/01 00:32:44;;;;;;;;;;;;;;;3.38;59.36;101268.09;4483287;32;20118;-87
2022/03/01 00:35:09;;;;;;;;;;;;;;;3.58;59.38;101268.50;4482887;32;20910;-85
2022/03/01 00:37:34;;;;;;;;;;;;;;;3.52;59.37;101275.22;4484672;32;20024;-87
2022/03/01 00:39:59;;;;;;;;;;;;;;;3.44;59.37;101274.19;4482422;32;26319;-86
2022/03/01 00:42:25;;;;;;;;;;;;;;;3.37;59.36;101271.50;4482953;32;19998;-86
2022/03/01 00:44:50;;;;;;;;;;;;;;;3.36;59.37;101272.34;4483130;32;19992;-86
2022/03/01 00:47:15;;;;;;;;;;;;;;;3.37;59.36;101273.22;4470034;32;20041;-87
2022/03/01 00:49:40;;;;;;;;;;;;;;;3.33;59.37;101269.69;4482632;32;20003;-86
2022/03/01 00:52:06;;;;;;;;;;;;;;;3.29;59.36;101272.16;4483148;32;20353;-85
2022/03/01 00:54:31;;;;;;;;;;;;;;;3.25;59.36;101265.19;4484245;31;20332;-86
2022/03/01 00:56:56;;;;;;;;;;;;;;;3.22;59.36;101275.44;4484430;32;20004;-86
2022/03/01 00:59:21;;;;;;;;;;;;;;;3.10;59.35;101270.91;4469817;32;20024;-87
2022/03/01 01:01:47;;;;;;;;;;;;;;;3.23;59.35;101264.31;4482815;32;28365;-88
2022/03/01 01:04:12;;;;;;;;;;;;;;;3.22;59.36;101260.87;4470364;32;20001;-90
2022/03/01 01:06:37;;;;;;;;;;;;;;;3.25;59.37;101267.78;4483084;32;20051;-90
2022/03/01 01:09:02;;;;;;;;;;;;;;;3.14;59.35;101259.84;4485045;32;20343;-91
2022/03/01 01:11:28;;;;;;;;;;;;;;;3.07;59.35;101263.94;4470571;32;19995;-89
2022/03/01 01:13:53;;;;;;;;;;;;;;;3.08;59.35;101268.28;4483629;32;20767;-87
2022/03/01 01:16:18;;;;;;;;;;;;;;;3.19;59.36;101259.94;4484482;32;20021;-89
2022/03/01 01:18:43;;;;;;;;;;;;;;;3.14;59.35;101259.84;4470063;32;20044;-90
2022/03/01 01:21:12;;;;;;;;;;;;;;;3.22;59.36;101265.16;4483231;32;19983;-89
2022/03/01 01:23:37;;;;;;;;;;;;;;;3.33;59.37;101258.53;4483308;32;20050;-90
2022/03/01 01:26:02;;;;;;;;;;;;;;;3.36;59.36;101263.75;4482944;32;20260;-89
2022/03/01 01:28:27;;;;;;;;;;;;;;;3.33;59.37;101258.53;4483296;32;20332;-89
2022/03/01 01:30:53;;;;;;;;;;;;;;;3.26;59.36;101262.66;4483504;32;19986;-92
2022/03/01 01:33:18;;;;;;;;;;;;;;;3.17;59.36;101257.31;4469843;32;20014;-90
2022/03/01 01:35:43;;;;;;;;;;;;;;;3.19;59.36;101267.66;4469896;32;20280;-89
2022/03/01 01:38:08;;;;;;;;;;;;;;;3.11;59.35;101257.19;4470091;32;19992;-90
2022/03/01 01:40:34;;;;;;;;;;;;;;;3.15;59.35;101259.00;4469721;32;19993;-89
2022/03/01 01:42:59;;;;;;;;;;;;;;;3.11;59.35;101261.47;4483124;32;20387;-91
2022/03/01 01:45:25;;;;;;;;;;;;;;;3.16;59.35;101270.16;4483679;32;20308;-91
2022/03/01 01:47:50;;;;;;;;;;;;;;;2.99;59.35;101265.50;4470872;32;19996;-90
2022/03/01 01:50:15;;;;;;;;;;;;;;;3.03;59.35;101269.88;4470780;32;19999;-89
2022/03/01 01:52:43;;;;;;;;;;;;;;;3.02;59.35;101262.97;4471099;32;19988;-92
2022/03/01 01:55:08;;;;;;;;;;;;;;;3.02;59.34;101264.69;4470752;32;20061;-91
2022/03/01 01:57:33;;;;;;;;;;;;;;;2.96;59.35;101261.97;4470603;32;20000;-90
2022/03/01 02:00:00;;;;;;;;;;;;;;;3.06;59.34;101267.34;4470540;32;19980;-92
2022/03/01 02:02:26;;;;;;;;;;;;;;;2.98;59.34;101261.19;4471028;32;20048;-90
2022/03/01 02:04:51;;;;;;;;;;;;;;;3.02;59.34;101249.25;4470644;32;19995;-91
2022/03/01 02:07:16;;;;;;;;;;;;;;;3.02;59.35;101252.69;4469913;32;20054;-89
2022/03/01 02:09:42;;;;;;;;;;;;;;;3.09;59.36;101256.31;4470313;32;20371;-91
2022/03/01 02:12:07;;;;;;;;;;;;;;;3.07;59.35;101245.06;4469413;32;19988;-85
2022/03/01 02:14:33;;;;;;;;;;;;;;;3.16;59.35;101247.00;4481990;32;19994;-85
2022/03/01 02:16:58;;;;;;;;;;;;;;;3.19;59.36;101244.50;4482421;32;20042;-86
2022/03/01 02:19:23;;;;;;;;;;;;;;;3.20;59.36;101239.38;4485635;31;20317;-87
2022/03/01 02:21:49;;;;;;;;;;;;;;;3.00;59.34;101244.06;4485509;32;20008;-85
2022/03/01 02:24:18;;;;;;;;;;;;;;;3.13;59.35;101252.09;4484507;32;20313;-86
2022/03/01 02:26:43;;;;;;;;;;;;;;;3.06;59.35;101245.91;4484460;32;20010;-85
2022/03/01 02:29:08;;;;;;;;;;;;;;;2.90;59.34;101252.44;4484191;32;20020;-86
2022/03/01 02:31:34;;;;;;;;;;;;;;;2.87;59.33;101242.09;4484320;32;20003;-86
2022/03/01 02:33:59;;;;;;;;;;;;;;;2.96;59.35;101246.56;4485701;32;19980;-85
2022/03/01 02:36:24;;;;;;;;;;;;;;;2.91;59.33;101246.47;4485252;32;20040;-84
2022/03/01 02:38:49;;;;;;;;;;;;;;;2.85;59.33;101245.44;4485411;32;20015;-84
2022/03/01 02:41:15;;;;;;;;;;;;;;;2.87;59.33;101244.66;4485517;32;20040;-84
2022/03/01 02:43:40;;;;;;;;;;;;;;;2.97;59.35;101232.84;4485702;32;20032;-86
2022/03/01 02:46:05;;;;;;;;;;;;;;;2.86;59.33;101237.78;4484207;32;19985;-85
2022/03/01 02:48:30;;;;;;;;;;;;;;;2.95;59.35;101244.81;4485290;32;20434;-84
2022/03/01 02:50:55;;;;;;;;;;;;;;;2.99;59.34;101236.31;4485445;32;20246;-86
2022/03/01 02:53:21;;;;;;;;;;;;;;;2.95;59.35;101239.66;4485376;32;19994;-85
2022/03/01 02:55:46;;;;;;;;;;;;;;;3.06;59.34;101233.03;4483883;32;20019;-85
2022/03/01 02:58:11;;;;;;;;;;;;;;;3.01;59.34;101227.81;4483323;32;32703;-86
2022/03/01 03:00:38;;;;;;;;;;;;;;;2.95;59.35;101242.25;4470888;32;19995;-85
2022/03/01 03:03:03;;;;;;;;;;;;;;;2.95;59.33;101229.38;4485600;31;19990;-86
2022/03/01 03:05:28;;;;;;;;;;;;;;;2.97;59.35;101232.84;4470819;32;20004;-86
2022/03/01 03:07:53;;;;;;;;;;;;;;;2.97;59.34;101228.59;4485330;32;19988;-85
2022/03/01 03:10:19;;;;;;;;;;;;;;;3.09;59.36;101233.16;4483923;32;20763;-85
2022/03/01 03:12:44;;;;;;;;;;;;;;;3.14;59.36;101233.25;4483895;32;19996;-86
2022/03/01 03:15:10;;;;;;;;;;;;;;;3.08;59.35;101231.41;4485240;31;20261;-83
2022/03/01 03:17:35;;;;;;;;;;;;;;;3.01;59.35;101237.22;4484074;32;20137;-84
2022/03/01 03:20:00;;;;;;;;;;;;;;;2.98;59.34;101238.03;4483596;32;21047;-84
2022/03/01 03:22:26;;;;;;;;;;;;;;;3.06;59.35;101238.19;4485443;32;20011;-84
2022/03/01 03:24:51;;;;;;;;;;;;;;;3.10;59.36;101234.88;4484972;32;22745;-85
2022/03/01 03:27:16;;;;;;;;;;;;;;;3.06;59.35;101233.91;4483872;32;20013;-86
2022/03/01 03:29:41;;;;;;;;;;;;;;;3.07;59.35;101235.66;4485001;32;20041;-84
2022/03/01 03:32:07;;;;;;;;;;;;;;;3.05;59.35;101242.47;4485087;32;19965;-84
2022/03/01 03:34:32;;;;;;;;;;;;;;;3.01;59.35;101234.66;4483955;32;20015;-84
2022/03/01 03:36:57;;;;;;;;;;;;;;;2.98;59.35;101240.59;4483876;32;19985;-84
2022/03/01 03:39:22;;;;;;;;;;;;;;;3.15;59.36;101241.00;4485133;32;20002;-84
2022/03/01 03:41:48;;;;;;;;;;;;;;;3.03;59.35;101244.16;4483761;32;20396;-85
2022/03/01 03:44:13;;;;;;;;;;;;;;;3.12;59.36;101243.50;4483650;32;20025;-86
2022/03/01 03:46:38;;;;;;;;;;;;;;;3.31;59.37;101245.62;4470756;32;19988;-85
2022/03/01 03:49:03;;;;;;;;;;;;;;;3.25;59.36;101242.03;4470862;32;20245;-86
2022/03/01 03:51:29;;;;;;;;;;;;;;;3.22;59.36;101235.12;4485309;31;20030;-86
2022/03/01 03:53:54;;;;;;;;;;;;;;;3.35;59.36;101237.16;4483999;32;20015;-86
2022/03/01 03:56:19;;;;;;;;;;;;;;;3.19;59.36;101235.06;4483927;32;19980;-86
2022/03/01 03:58:44;;;;;;;;;;;;;;;3.44;59.37;101233.00;4483857;32;20020;-86
2022/03/01 04:01:10;;;;;;;;;;;;;;;3.19;59.36;101240.22;4483954;32;19988;-86
2022/03/01 04:03:35;;;;;;;;;;;;;;;3.35;59.36;101244.88;4483931;32;20023;-86
2022/03/01 04:06:00;;;;;;;;;;;;;;;3.15;59.36;101241.00;4484904;32;20035;-86
2022/03/01 04:08:25;;;;;;;;;;;;;;;3.12;59.35;101242.63;4485356;32;19984;-85
2022/03/01 04:10:50;;;;;;;;;;;;;;;3.18;59.36;101240.19;4484635;32;29140;-85
2022/03/01 04:13:16;;;;;;;;;;;;;;;3.26;59.36;101246.34;4484990;32;20309;-85
2022/03/01 04:15:41;;;;;;;;;;;;;;;3.18;59.36;101245.34;4485214;32;20226;-85
2022/03/01 04:18:06;;;;;;;;;;;;;;;3.29;59.36;101244.72;4483854;32;19989;-86
2022/03/01 04:20:31;;;;;;;;;;;;;;;3.46;59.38;101239.06;4485070;32;19984;-86
2022/03/01 04:22:57;;;;;;;;;;;;;;;3.19;59.36;101236.78;4485100;32;20356;-86
2022/03/01 04:25:22;;;;;;;;;;;;;;;3.29;59.36;101238.69;4484887;32;20007;-86
2022/03/01 04:27:47;;;;;;;;;;;;;;;2.97;59.35;101248.28;4483731;32;19994;-85
2022/03/01 04:30:13;;;;;;;;;;;;;;;3.09;59.36;101240.87;4470631;32;20111;-86
2022/03/01 04:32:39;;;;;;;;;;;;;;;2.94;59.35;101236.22;4470435;32;20325;-86
2022/03/01 04:35:04;;;;;;;;;;;;;;;2.80;59.33;101239.31;4485085;31;20060;-86
2022/03/01 04:37:29;;;;;;;;;;;;;;;3.00;59.34;101245.78;4484865;31;20007;-86
2022/03/01 04:39:55;;;;;;;;;;;;;;;3.05;59.35;101244.19;4482836;32;20449;-85
2022/03/01 04:42:20;;;;;;;;;;;;;;;3.05;59.35;101246.75;4485045;31;20223;-84
2022/03/01 04:44:45;;;;;;;;;;;;;;;3.02;59.35;101251.81;4484965;32;20007;-85
2022/03/01 04:47:11;;;;;;;;;;;;;;;2.81;59.34;101246.19;4484956;32;19991;-85
2022/03/01 04:49:36;;;;;;;;;;;;;;;2.82;59.34;101246.22;4484794;32;19992;-85
2022/03/01 04:52:01;;;;;;;;;;;;;;;3.01;59.34;101245.81;4485004;31;20325;-88
2022/03/01 04:54:27;;;;;;;;;;;;;;;2.85;59.33;101242.88;4484969;31;19968;-87
2022/03/01 04:56:52;;;;;;;;;;;;;;;2.59;59.32;101253.38;4482800;32;25033;-86
2022/03/01 04:59:18;;;;;;;;;;;;;;;2.44;59.32;101245.31;4482521;32;29910;-86
2022/03/01 05:01:43;;;;;;;;;;;;;;;2.49;59.31;101248.00;4470165;32;20030;-87
2022/03/01 05:04:08;;;;;;;;;;;;;;;2.44;59.32;101253.03;4469206;32;32853;-87
2022/03/01 05:06:33;;;;;;;;;;;;;;;2.28;59.30;101240.63;4483220;32;20007;-86
2022/03/01 05:08:59;;;;;;;;;;;;;;;2.25;59.30;101243.13;4484419;32;20000;-86
2022/03/01 05:11:24;;;;;;;;;;;;;;;2.41;59.31;101235.84;4482918;32;20313;-85
2022/03/01 05:13:49;;;;;;;;;;;;;;;2.39;59.31;101231.50;4483082;32;20001;-85
2022/03/01 05:16:14;;;;;;;;;;;;;;;2.27;59.30;101241.44;4483045;32;20043;-86
2022/03/01 05:18:40;;;;;;;;;;;;;;;2.21;59.29;101238.72;4469856;32;20120;-85
2022/03/01 05:21:05;;;;;;;;;;;;;;;2.12;59.29;101237.66;4469269;32;21420;-86
2022/03/01 05:23:30;;;;;;;;;;;;;;;1.98;59.29;101244.13;4482083;32;28426;-86
2022/03/01 05:25:55;;;;;;;;;;;;;;;2.08;59.29;101246.09;4484048;32;19988;-86
2022/03/01 05:28:20;;;;;;;;;;;;;;;2.04;59.29;101244.28;4482378;32;20003;-86
2022/03/01 05:30:46;;;;;;;;;;;;;;;2.06;59.29;101239.19;4481826;32;30831;-86
2022/03/01 05:33:11;;;;;;;;;;;;;;;1.99;59.29;101242.44;4482670;32;20008;-86
2022/03/01 05:35:37;;;;;;;;;;;;;;;1.90;59.27;101243.06;4482610;32;20011;-86
2022/03/01 05:38:02;;;;;;;;;;;;;;;1.92;59.28;101245.69;4482601;32;20043;-86
2022/03/01 05:40:29;;;;;;;;;;;;;;;1.96;59.28;101250.94;4469481;32;19992;-86
2022/03/01 05:42:54;;;;;;;;;;;;;;;1.97;59.28;101242.41;4482621;32;19973;-86
2022/03/01 05:45:20;;;;;;;;;;;;;;;2.00;59.29;101244.19;4482095;32;23352;-87
2022/03/01 05:47:45;;;;;;;;;;;;;;;1.93;59.29;101243.16;4483770;31;20016;-86
2022/03/01 05:50:11;;;;;;;;;;;;;;;2.20;59.29;101237.88;4469175;32;19999;-87
2022/03/01 05:52:36;;;;;;;;;;;;;;;2.28;59.30;101250.91;4483135;32;19989;-86
2022/03/01 05:55:02;;;;;;;;;;;;;;;2.49;59.31;101233.44;4471246;32;19989;-85
2022/03/01 05:57:28;;;;;;;;;;;;;;;2.27;59.30;101251.72;4484232;32;19989;-87
2022/03/01 05:59:54;;;;;;;;;;;;;;;2.28;59.31;101249.19;4484358;32;20008;-86
2022/03/01 06:02:19;;;;;;;;;;;;;;;2.18;59.30;101256.63;4484396;32;19973;-86
2022/03/01 06:04:45;;;;;;;;;;;;;;;2.33;59.30;101250.19;4471044;32;20043;-86
2022/03/01 06:07:10;;;;;;;;;;;;;;;2.78;59.33;101247.84;4471037;32;19989;-88
2022/03/01 06:09:35;;;;;;;;;;;;;;;2.36;59.31;101257.94;4483892;32;20036;-86
2022/03/01 06:12:00;;;;;;;;;;;;;;;2.42;59.30;101249.56;4484946;32;20011;-88
2022/03/01 06:14:25;;;;;;;;;;;;;;;2.57;59.31;101262.75;4484039;32;20003;-87
2022/03/01 06:16:51;;;;;;;;;;;;;;;2.65;59.33;101245.84;4483557;32;29428;-87
2022/03/01 06:19:16;;;;;;;;;;;;;;;2.86;59.33;101257.47;4485144;32;20309;-85
2022/03/01 06:21:41;;;;;;;;;;;;;;;2.84;59.33;101252.31;4485419;31;20296;-86
2022/03/01 06:24:06;;;;;;;;;;;;;;;2.91;59.34;101250.72;4484267;32;20294;-86
2022/03/01 06:26:32;;;;;;;;;;;;;;;3.03;59.35;101253.56;4470795;32;20000;-86
2022/03/01 06:28:57;;;;;;;;;;;;;;;3.26;59.37;101257.50;4484242;32;20049;-87
2022/03/01 06:31:22;;;;;;;;;;;;;;;3.27;59.36;101245.50;4483391;32;29184;-87
2022/03/01 06:33:48;;;;;;;;;;;;;;;3.31;59.37;101250.78;4484598;32;31228;-87
2022/03/01 06:36:13;;;;;;;;;;;;;;;3.28;59.36;101244.69;4470827;32;19992;-87
2022/03/01 06:38:38;;;;;;;;;;;;;;;3.43;59.37;101239.00;4483343;32;27485;-86
2022/03/01 06:41:03;;;;;;;;;;;;;;;3.52;59.38;101241.75;4483459;32;20812;-86
2022/03/01 06:43:29;;;;;;;;;;;;;;;3.82;59.39;101242.38;4485309;32;20207;-87
2022/03/01 06:45:54;;;;;;;;;;;;;;;3.96;59.40;101243.50;4485611;32;20010;-88
2022/03/01 06:48:19;;;;;;;;;;;;;;;3.68;59.39;101239.53;4470908;32;20051;-87
2022/03/01 06:50:44;;;;;;;;;;;;;;;3.85;59.40;101244.16;4470777;32;20004;-88
2022/03/01 06:53:11;;;;;;;;;;;;;;;4.11;59.41;101240.34;4470754;32;20108;-87
2022/03/01 06:55:37;;;;;;;;;;;;;;;4.20;59.42;101243.06;4484156;32;20041;-87
2022/03/01 06:58:02;;;;;;;;;;;;;;;4.02;59.40;101237.56;4484838;32;19981;-88
2022/03/01 07:00:27;;;;;;;;;;;;;;;4.25;59.41;101238.00;4483805;32;20048;-88
2022/03/01 07:02:52;;;;;;;;;;;;;;;4.48;59.43;101235.81;4471103;32;19996;-90
2022/03/01 07:05:19;;;;;;;;;;;;;;;4.49;59.44;101230.66;4464046;32;20036;-89
2022/03/01 07:07:44;;;;;;;;;;;;;;;4.28;59.42;101230.34;4480980;32;19991;-88
2022/03/01 07:10:11;;;;;;;;;;;;;;;4.49;59.44;101233.25;4466979;32;20102;-89
2022/03/01 07:12:36;;;;;;;;;;;;;;;4.46;59.43;101233.19;4469798;32;20363;-84
2022/03/01 07:15:02;;;;;;;;;;;;;;;4.79;59.45;101222.56;4473782;31;19980;-85
2022/03/01 07:17:27;;;;;;;;;;;;;;;4.98;59.46;101218.53;4477418;31;20079;-89
2022/03/01 07:19:52;;;;;;;;;;;;;;;4.86;59.45;101220.94;4470199;32;19977;-91
2022/03/01 07:24:50;;;;;;;;;;;;;;;4.89;59.45;101218.41;4471044;32;20042;-85
2022/03/01 07:27:15;;;;;;;;;;;;;;;4.97;59.46;101214.22;4472607;32;20295;-87
2022/03/01 07:29:41;;;;;;;;;;;;;;;4.97;59.46;101208.16;4488760;31;19992;-89
2022/03/01 07:32:06;;;;;;;;;;;;;;;5.04;59.47;101212.59;4469408;31;20007;-87
2022/03/01 07:34:32;;;;;;;;;;;;;;;5.07;59.46;101208.34;4471063;32;20026;-90
2022/03/01 07:36:57;;;;;;;;;;;;;;;5.11;59.47;101207.53;4466802;32;20310;-85
2022/03/01 07:41:57;;;;;;;;;;;;;;;5.32;59.49;101209.53;4609464;26;19985;-87
2022/03/01 07:44:22;;;;;;;;;;;;;;;5.40;59.48;101200.16;4405484;32;20032;-84
2022/03/01 17:16:06;;;;;;;;;;;;;;;8.05;59.64;100741.34;4468194;32;19998;-83
2022/03/01 17:21:34;;;;;;;;;;;;;;;7.83;59.63;100745.78;4452691;32;20466;-84
2022/03/01 17:27:03;;;;;;;;;;;;;;;7.86;59.64;100743.16;4453158;32;19998;-83
2022/03/01 17:32:30;;;;;;;;;;;;;;;7.69;59.63;100743.22;4453475;32;20004;-83
2022/03/01 17:37:59;;;;;;;;;;;;;;;7.37;59.61;100743.38;4453122;32;20057;-83
2022/03/01 17:43:27;;;;;;;;;;;;;;;7.37;59.60;100740.78;4453270;32;19983;-83
2022/03/01 17:48:55;;;;;;;;;;;;;;;7.46;59.61;100747.62;4455032;32;20045;-84
2022/03/01 17:54:23;;;;;;;;;;;;;;;7.33;59.61;100746.81;4454943;32;20026;-84
2022/03/01 17:59:51;;;;;;;;;;;;;;;7.36;59.61;100741.63;4454741;32;20090;-84
2022/03/01 18:05:21;;;;;;;;;;;;;;;7.33;59.61;100741.63;4455136;32;20008;-84
2022/03/01 18:10:49;;;;;;;;;;;;;;;7.28;59.60;100745.97;4449760;32;20000;-84
2022/03/01 18:16:17;;;;;;;;;;;;;;;7.23;59.60;100745.13;4445777;32;19992;-83
2022/03/01 18:21:46;;;;;;;;;;;;;;;7.07;59.59;100750.31;4447237;32;20007;-83
2022/03/01 18:27:14;;;;;;;;;;;;;;;7.02;59.59;100741.69;4435522;32;20307;-84
2022/03/01 18:32:42;;;;;;;;;;;;;;;6.81;59.58;100752.06;4454926;32;20031;-84
2022/03/01 18:38:11;;;;;;;;;;;;;;;6.69;59.57;100759.88;4455100;32;20370;-83
2022/03/01 18:43:39;;;;;;;;;;;;;;;6.67;59.57;100757.28;4455176;32;20340;-82
2022/03/01 18:49:07;;;;;;;;;;;;;;;6.40;59.55;100758.13;4455116;32;20036;-83
2022/03/01 19:37:06;;;;;;;;;;;;;;;5.64;59.51;100790.59;4438259;32;20008;-84
2022/03/01 19:39:32;;;;;;;;;;;;;;;5.56;59.50;100793.16;4411982;32;19990;-85
2022/03/01 19:41:57;;;;;;;;;;;;;;;5.67;59.51;100791.47;4406205;32;20001;-83
2022/03/01 19:44:22;;;;;;;;;;;;;;;5.67;59.51;100791.47;4401353;32;20005;-82
2022/03/01 19:46:47;;;;;;;;;;;;;;;5.81;59.51;100794.97;4426989;32;19977;-81
2022/03/01 19:49:13;;;;;;;;;;;;;;;5.95;59.52;100794.22;4423302;32;20310;-83
2022/03/01 19:51:38;;;;;;;;;;;;;;;5.86;59.52;100797.56;4420975;32;20302;-82
2022/03/01 19:54:04;;;;;;;;;;;;;;;5.72;59.51;100797.53;4432397;32;20042;-83
2022/03/01 19:56:30;;;;;;;;;;;;;;;5.73;59.52;100793.22;4424921;32;20432;-83
2022/03/01 19:58:55;;;;;;;;;;;;;;;5.73;59.51;100791.50;4424840;32;20001;-83
2022/03/01 20:01:21;;;;;;;;;;;;;;;5.80;59.52;100793.25;4423907;32;24899;-84
2022/03/01 20:03:46;;;;;;;;;;;;;;;5.87;59.52;100788.97;4414054;32;19966;-82
2022/03/01 20:06:11;;;;;;;;;;;;;;;5.76;59.52;100786.34;4424024;32;20020;-83
2022/03/01 20:08:37;;;;;;;;;;;;;;;5.76;59.53;100791.53;4414288;32;20001;-82
2022/03/01 20:11:02;;;;;;;;;;;;;;;5.83;59.53;100790.69;4421184;32;20290;-83
2022/03/01 20:13:27;;;;;;;;;;;;;;;5.74;59.51;100793.25;4424685;32;20479;-84
2022/03/01 20:15:52;;;;;;;;;;;;;;;5.77;59.52;100794.97;4420422;32;19990;-84
2022/03/01 20:18:18;;;;;;;;;;;;;;;5.77;59.52;100800.13;4418718;32;20004;-83
2022/03/01 20:20:43;;;;;;;;;;;;;;;5.76;59.52;100796.69;4438622;32;19997;-84
2022/03/01 20:23:10;;;;;;;;;;;;;;;5.82;59.51;100796.69;4424769;32;20017;-84
2022/03/01 20:25:35;;;;;;;;;;;;;;;5.74;59.51;100800.97;4424829;32;20078;-84
2022/03/01 20:28:01;;;;;;;;;;;;;;;5.64;59.51;100799.19;4424877;32;19996;-84
2022/03/01 20:30:27;;;;;;;;;;;;;;;5.50;59.50;100803.44;4398431;32;19990;-83
2022/03/01 20:32:52;;;;;;;;;;;;;;;5.51;59.50;100802.59;4421877;32;19992;-85
2022/03/01 20:35:17;;;;;;;;;;;;;;;5.37;59.49;100804.22;4423180;32;19978;-84
2022/03/01 20:37:43;;;;;;;;;;;;;;;5.28;59.48;100805.03;4449804;32;20028;-84
2022/03/01 20:40:11;;;;;;;;;;;;;;;5.22;59.48;100808.44;4439840;32;20038;-84
2022/03/01 20:42:40;;;;;;;;;;;;;;;5.20;59.48;100809.25;4440185;32;19973;-84
2022/03/01 20:45:06;;;;;;;;;;;;;;;5.23;59.49;100812.75;4439995;32;19997;-84
2022/03/01 20:47:31;;;;;;;;;;;;;;;5.11;59.48;100814.38;4439888;32;20330;-84
2022/03/01 20:49:56;;;;;;;;;;;;;;;5.10;59.48;100813.50;4439141;32;20306;-84
2022/03/01 20:52:21;;;;;;;;;;;;;;;5.02;59.48;100810.03;4425066;32;19993;-84
2022/03/01 20:54:47;;;;;;;;;;;;;;;5.02;59.47;100810.03;4441794;32;20004;-84
2022/03/01 20:57:12;;;;;;;;;;;;;;;4.98;59.47;100815.16;4439555;32;20003;-83
2022/03/01 20:59:37;;;;;;;;;;;;;;;4.93;59.46;100807.34;4437198;32;19992;-84
2022/03/01 21:02:02;;;;;;;;;;;;;;;4.89;59.46;100813.34;4422834;32;19984;-84
2022/03/01 21:04:28;;;;;;;;;;;;;;;4.86;59.46;100815.91;4423026;32;20001;-84
2022/03/01 21:06:56;;;;;;;;;;;;;;;4.83;59.46;100810.72;4431652;32;26031;-84
2022/03/01 21:09:22;;;;;;;;;;;;;;;4.85;59.45;100809.03;4439871;32;20126;-83
2022/03/01 21:11:47;;;;;;;;;;;;;;;4.89;59.46;100808.19;4439742;32;20044;-84
2022/03/01 21:14:12;;;;;;;;;;;;;;;4.72;59.46;100812.34;4439534;32;20004;-84
2022/03/01 21:16:37;;;;;;;;;;;;;;;4.75;59.46;100809.81;4430191;32;20285;-83
2022/03/01 21:19:03;;;;;;;;;;;;;;;4.67;59.45;100811.44;4437614;32;20001;-84
2022/03/01 21:21:28;;;;;;;;;;;;;;;4.68;59.46;100823.47;4439238;32;20027;-84
2022/03/01 21:23:55;;;;;;;;;;;;;;;4.63;59.44;100808.84;4453301;32;19965;-83
2022/03/01 21:26:20;;;;;;;;;;;;;;;4.58;59.45;100815.66;4453914;32;19977;-84
2022/03/01 21:28:45;;;;;;;;;;;;;;;4.51;59.45;100821.62;4453667;32;20269;-83
2022/03/01 21:31:10;;;;;;;;;;;;;;;4.26;59.43;100824.81;4399251;32;872086;-83
2022/03/01 21:33:36;;;;;;;;;;;;;;;4.32;59.43;100817.13;4438821;32;23500;-83
2022/03/01 21:36:01;;;;;;;;;;;;;;;4.38;59.43;100819.75;4424947;32;33561;-82
2022/03/01 21:38:26;;;;;;;;;;;;;;;4.32;59.43;100804.25;4452863;32;19985;-84
2022/03/01 21:40:52;;;;;;;;;;;;;;;4.29;59.44;100810.22;4425536;32;19973;-84
2022/03/01 21:43:17;;;;;;;;;;;;;;;4.26;59.43;100811.91;4438638;32;20357;-84
2022/03/01 21:45:43;;;;;;;;;;;;;;;4.25;59.42;100805.00;4438645;32;20057;-83
2022/03/01 21:48:09;;;;;;;;;;;;;;;4.21;59.43;100810.97;4452439;32;20023;-84
2022/03/01 21:50:34;;;;;;;;;;;;;;;4.03;59.42;100811.66;4425963;32;19965;-84
2022/03/01 21:53:00;;;;;;;;;;;;;;;3.95;59.41;100816.72;4425149;32;20035;-84
2022/03/01 21:55:25;;;;;;;;;;;;;;;3.93;59.41;100810.66;4438058;32;20023;-84
2022/03/01 21:57:50;;;;;;;;;;;;;;;4.06;59.42;100810.84;4438189;32;20336;-83
2022/03/01 22:00:16;;;;;;;;;;;;;;;4.07;59.41;100800.53;4452445;32;19975;-84
2022/03/01 22:02:42;;;;;;;;;;;;;;;3.91;59.41;100802.06;4438320;32;19989;-83
2022/03/01 22:05:07;;;;;;;;;;;;;;;3.87;59.40;100805.47;4438988;32;19981;-84
2022/03/01 22:07:33;;;;;;;;;;;;;;;3.89;59.40;100796.03;4438814;32;20259;-84
2022/03/01 22:10:00;;;;;;;;;;;;;;;3.92;59.41;100805.50;4438681;32;19987;-85
2022/03/01 22:12:25;;;;;;;;;;;;;;;3.92;59.41;100805.50;4430522;32;19990;-84
2022/03/01 22:14:51;;;;;;;;;;;;;;;3.91;59.41;100803.78;4436060;32;20558;-84
2022/03/01 22:17:16;;;;;;;;;;;;;;;3.92;59.41;100801.22;4441638;32;20586;-84
2022/03/01 22:19:41;;;;;;;;;;;;;;;3.71;59.40;100806.09;4425505;32;21846;-84
2022/03/01 22:22:06;;;;;;;;;;;;;;;3.51;59.38;100804.97;4425672;32;20023;-83
2022/03/01 22:24:32;;;;;;;;;;;;;;;3.50;59.39;100811.84;4436241;32;20001;-84
2022/03/01 22:26:57;;;;;;;;;;;;;;;3.56;59.39;100808.50;4438527;32;19973;-83
2022/03/01 22:29:22;;;;;;;;;;;;;;;3.47;59.38;100814.38;4438662;32;19969;-83
2022/03/01 22:31:48;;;;;;;;;;;;;;;3.49;59.38;100807.53;4452355;32;20027;-83
2022/03/01 22:34:13;;;;;;;;;;;;;;;3.38;59.37;100804.81;4438957;32;20003;-84
2022/03/01 22:36:39;;;;;;;;;;;;;;;3.33;59.38;100800.47;4440479;32;20270;-84
2022/03/01 22:39:04;;;;;;;;;;;;;;;3.31;59.38;100803.03;4454911;32;20312;-84
2022/03/01 22:41:30;;;;;;;;;;;;;;;3.23;59.38;100814.88;4440608;32;20031;-84
2022/03/01 22:43:55;;;;;;;;;;;;;;;3.18;59.37;100815.66;4454886;32;20339;-82
2022/03/01 22:46:20;;;;;;;;;;;;;;;3.11;59.37;100808.72;4454741;32;20042;-83
2022/03/01 22:48:45;;;;;;;;;;;;;;;3.07;59.36;100807.78;4454627;32;20313;-83
2022/03/01 22:51:11;;;;;;;;;;;;;;;3.01;59.35;100807.69;4427568;32;20304;-84
2022/03/01 22:53:36;;;;;;;;;;;;;;;2.89;59.35;100802.38;4440519;32;20019;-84
2022/03/01 22:56:01;;;;;;;;;;;;;;;2.80;59.35;100805.63;4440667;32;19991;-84
2022/03/01 22:58:26;;;;;;;;;;;;;;;2.82;59.35;100805.66;4440554;32;19997;-84
2022/03/01 23:00:51;;;;;;;;;;;;;;;2.71;59.33;100813.22;4440301;32;19986;-83
2022/03/01 23:03:17;;;;;;;;;;;;;;;2.47;59.32;100806.81;4440522;32;19985;-84
2022/03/01 23:05:42;;;;;;;;;;;;;;;2.54;59.32;100802.63;4454430;32;19982;-83
2022/03/01 23:08:11;;;;;;;;;;;;;;;2.43;59.32;100805.03;4440614;32;19987;-82
2022/03/01 23:10:37;;;;;;;;;;;;;;;2.40;59.31;100797.28;4440388;32;20375;-84
2022/03/01 23:13:02;;;;;;;;;;;;;;;2.34;59.31;100794.56;4440605;32;19981;-82
2022/03/01 23:15:27;;;;;;;;;;;;;;;2.35;59.31;100796.28;4438310;32;19969;-82
2022/03/01 23:17:52;;;;;;;;;;;;;;;2.54;59.33;100794.06;4431302;32;19996;-84
2022/03/01 23:20:18;;;;;;;;;;;;;;;2.21;59.30;100796.91;4440462;32;19996;-83
2022/03/01 23:22:43;;;;;;;;;;;;;;;2.11;59.30;100793.28;4440670;32;19989;-83
2022/03/01 23:25:08;;;;;;;;;;;;;;;2.15;59.30;100795.97;4440755;32;20676;-84
2022/03/01 23:27:34;;;;;;;;;;;;;;;2.08;59.30;100788.09;4454856;32;19969;-83
2022/03/01 23:29:59;;;;;;;;;;;;;;;1.96;59.29;100783.59;4440112;32;20035;-84
2022/03/01 23:32:25;;;;;;;;;;;;;;;1.98;59.29;100789.63;4440259;32;20000;-84
2022/03/01 23:34:51;;;;;;;;;;;;;;;1.99;59.30;100783.66;4440434;32;19991;-84
2022/03/01 23:37:16;;;;;;;;;;;;;;;2.02;59.29;100781.16;4440279;32;19985;-82
2022/03/01 23:39:41;;;;;;;;;;;;;;;1.98;59.29;100781.06;4454430;32;19981;-81
2022/03/01 23:42:08;;;;;;;;;;;;;;;1.94;59.29;100774.12;4427272;32;20309;-82
2022/03/01 23:44:33;;;;;;;;;;;;;;;1.93;59.30;100767.28;4427088;32;20040;-82
2022/03/01 23:46:58;;;;;;;;;;;;;;;1.83;59.29;100764.50;4440248;32;19977;-81
2022/03/01 23:49:24;;;;;;;;;;;;;;;1.96;59.29;100765.63;4443353;32;20026;-82